FW0419 Weather Reports


Display with metric or nautical units.
time (UTC)temp
F
wind
direction
speed
MPH
gust
MPH
rain 1hr
in
rain 24hr
in
rain mn
in
humidity
%
barometer
mb
20220624231558 81 278 0.0 4.0 0.00 0.00 0.00 68 1017.5
20220624230058 81 249 0.0 5.0 0.00 0.00 0.00 67 1017.4
20220624224558 80 270 0.0 4.0 0.00 0.00 0.00 68 1017.3
20220624223102 80 306 2.0 6.0 0.00 0.00 0.00 67 1017.2
20220624221558 80 301 2.0 5.0 0.00 0.00 0.00 67 1017.2
20220624220057 80 292 0.0 4.0 0.00 0.00 0.00 69 1017.4
20220624214554 79 349 2.0 6.0 0.00 0.00 0.00 69 1017.5
20220624213056 79 98 0.0 8.0 0.00 0.00 0.00 69 1017.5
20220624211554 79 332 3.0 7.0 0.00 0.00 0.00 70 1017.6
20220624210052 79 1 1.0 8.0 0.00 0.00 0.00 71 1017.5
20220624204552 78 10 1.0 6.0 0.00 0.00 0.00 72 1017.4
20220624203056 78 311 1.0 6.0 0.00 0.00 0.00 72 1017.6
20220624201549 78 240 1.0 6.0 0.00 0.00 0.00 72 1017.6
20220624200049 78 278 3.0 9.0 0.00 0.00 0.00 71 1017.7
20220624194547 77 286 3.0 6.0 0.00 0.00 0.00 73 1017.6
20220624193049 77 293 2.0 7.0 0.00 0.00 0.00 73 1017.8
20220624191543 77 252 1.0 7.0 0.00 0.00 0.00 74 1017.8
20220624190043 76 317 2.0 5.0 0.00 0.00 0.00 73 1017.7
20220624184551 77 167 2.0 7.0 0.00 0.00 0.00 73 1017.8
20220624183041 76 288 3.0 7.0 0.00 0.00 0.00 73 1017.9
20220624181541 76 252 0.0 5.0 0.00 0.00 0.00 73 1018.0
20220624180043 75 295 1.0 7.0 0.00 0.00 0.00 77 1018.1
20220624174543 75 283 1.0 7.0 0.00 0.00 0.00 75 1018.2
20220624173040 75 202 0.0 4.0 0.00 0.00 0.00 78 1018.3
20220624171536 74 319 1.0 6.0 0.00 0.00 0.00 77 1018.5
20220624170037 73 285 2.0 5.0 0.00 0.00 0.00 78 1018.7
20220624164540 73 299 2.0 6.0 0.00 0.00 0.00 78 1018.8
20220624163033 73 304 1.0 5.0 0.00 0.00 0.00 78 1018.8
20220624161531 72 309 2.0 6.0 0.00 0.00 0.00 79 1018.7
20220624160033 71 290 2.0 6.0 0.00 0.00 0.00 82 1018.8
20220624154532 72 333 3.0 7.0 0.00 0.00 0.00 80 1018.8
20220624153030 71 264 3.0 8.0 0.00 0.03 0.00 83 1018.8
20220624151532 71 251 2.0 6.0 0.00 0.03 0.00 83 1018.8
20220624150029 70 306 2.0 6.0 0.00 0.03 0.00 84 1018.6
20220624144531 70 297 1.0 4.0 0.00 0.03 0.00 83 1018.6
20220624143024 70 203 2.0 4.0 0.00 0.05 0.00 83 1018.4
20220624141523 69 312 2.0 4.0 0.00 0.05 0.00 83 1018.4
20220624140021 69 241 0.0 3.0 0.00 0.05 0.00 85 1018.4
20220624134531 69 289 0.0 2.0 0.00 0.05 0.00 83 1018.3
20220624133024 69 295 1.0 3.0 0.00 0.08 0.00 82 1018.2
20220624131520 69 288 0.0 0.0 0.00 0.08 0.00 82 1018.2
20220624130020 68 226 0.0 3.0 0.00 0.08 0.00 83 1018.1
20220624124519 67 128 1.0 4.0 0.00 0.08 0.00 85 1018.1
20220624123018 67 135 1.0 4.0 0.00 0.41 0.00 85 1017.8
20220624121517 68 151 2.0 4.0 0.00 0.41 0.00 83 1017.7
20220624120017 67 101 0.0 1.0 0.00 0.41 0.00 87 1017.6
20220624114517 66 114 0.0 1.0 0.00 0.41 0.00 93 1017.5
20220624113016 63 120 0.0 0.0 0.00 0.50 0.00 96 1017.6
20220624111514 61 119 0.0 1.0 0.00 0.50 0.00 97 1017.7
20220624110015 59 126 0.0 0.0 0.00 0.50 0.00 98 1017.7
20220624104518 58 126 0.0 0.0 0.00 0.50 0.00 98 1017.7
20220624103013 57 126 0.0 1.0 0.00 0.57 0.00 98 1017.6
20220624101516 56 126 0.0 0.0 0.00 0.57 0.00 98 1017.5
20220624100015 54 115 0.0 0.0 0.00 0.57 0.00 98 1017.2
20220624094516 54 115 0.0 0.0 0.00 0.57 0.00 98 1017.1
20220624093009 54 115 0.0 0.0 0.00 0.70 0.00 98 1017.0
20220624091507 54 115 0.0 0.0 0.00 0.70 0.00 97 1016.8
20220624090014 55 115 0.0 1.0 0.00 0.70 0.00 97 1016.6
20220624084504 55 115 0.0 0.0 0.00 0.70 0.00 97 1016.5
20220624083004 55 115 0.0 0.0 0.00 0.82 0.00 97 1016.4
20220624081503 55 115 0.0 0.0 0.00 0.82 0.00 97 1016.3
20220624080002 55 115 0.0 0.0 0.00 0.82 0.00 97 1016.2
20220624074501 55 115 0.0 0.0 0.00 0.82 0.00 97 1016.2
20220624073002 55 115 0.0 0.0 0.00 0.87 0.00 97 1016.2
20220624071501 55 107 0.0 0.0 0.00 0.87 0.00 97 1016.1
20220624070059 56 138 0.0 0.0 0.00 0.87 0.00 97 1016.0
20220624064559 56 143 0.0 0.0 0.00 0.87 0.00 97 1016.2
20220624063057 56 143 0.0 0.0 0.00 0.90 0.00 97 1016.2
20220624061603 56 144 0.0 0.0 0.00 0.90 0.00 97 1016.3
20220624060055 56 144 0.0 0.0 0.00 0.90 0.00 96 1016.2
20220624054559 57 143 0.0 0.0 0.00 0.90 0.00 96 1016.2
20220624053056 57 143 0.0 0.0 0.00 1.10 0.00 96 1016.3
20220624051607 58 143 0.0 0.0 0.00 1.10 0.00 96 1016.3
20220624050051 58 143 0.0 0.0 0.00 1.10 0.00 96 1016.2
20220624044550 59 144 0.0 0.0 0.00 1.10 0.00 96 1016.1
20220624043048 59 139 0.0 0.0 0.00 1.12 0.00 95 1016.2
20220624041548 59 139 0.0 0.0 0.00 1.12 0.00 96 1016.3
20220624040047 60 139 0.0 0.0 0.00 1.12 0.00 95 1016.3
20220624034647 60 139 0.0 0.0 0.00 1.12 0.00 96 1016.2
20220624033045 60 139 0.0 0.0 0.00 1.12 0.00 95 1016.2
20220624031545 61 139 0.0 0.0 0.00 1.12 0.00 95 1016.3
20220624030043 60 139 0.0 0.0 0.00 1.12 0.00 95 1016.2
20220624024543 60 139 0.0 0.0 0.00 1.12 0.00 94 1016.0
20220624023042 60 139 0.0 0.0 0.00 1.12 0.00 93 1015.9
20220624021540 61 139 0.0 0.0 0.00 1.12 0.00 92 1015.8
20220624020037 62 139 0.0 0.0 0.00 1.12 0.00 91 1015.8
20220624014536 63 142 0.0 0.0 0.00 1.12 0.00 90 1015.8
20220624013034 63 137 0.0 0.0 0.00 1.12 0.00 90 1015.7
20220624011535 64 69 0.0 0.0 0.00 1.12 0.00 90 1015.6
20220624010031 65 69 0.0 0.0 0.00 1.12 0.00 88 1015.4
20220624004528 65 69 0.0 0.0 0.00 1.12 0.00 87 1015.3
20220624003047 66 69 0.0 0.0 0.00 1.12 0.00 86 1015.2
20220624001523 67 69 0.0 0.0 0.00 1.12 0.00 84 1015.1
20220624000022 68 69 0.0 2.0 0.00 1.12 0.00 81 1015.0
20220623234519 70 92 0.0 3.0 0.00 1.12 0.00 79 1015.0
20220623233018 70 134 2.0 4.0 0.00 1.12 0.00 78 1015.0